createdAt,value
2022-09-10T00:01:40.255Z,44.80
2022-09-10T00:04:12.746Z,37.60
2022-09-10T00:06:42.130Z,37.50
2022-09-10T00:09:12.677Z,38.20
2022-09-10T00:11:42.063Z,36.80
2022-09-10T00:14:15.473Z,37.70
2022-09-10T00:19:13.313Z,36.10
2022-09-10T00:21:42.192Z,36.40
2022-09-10T00:24:10.749Z,34.30
2022-09-10T00:26:40.358Z,34.60
2022-09-10T00:29:12.353Z,36.60
2022-09-10T00:31:40.297Z,37.90
2022-09-10T00:34:13.175Z,36.40
2022-09-10T00:36:44.060Z,39.60
2022-09-10T00:39:16.784Z,37.00
2022-09-10T00:41:48.320Z,42.00
2022-09-10T00:44:42.238Z,46.50
2022-09-10T00:47:17.298Z,38.50
2022-09-10T00:50:05.342Z,38.80
2022-09-10T00:52:39.399Z,40.30
2022-09-10T00:55:12.699Z,39.40
2022-09-10T00:57:43.761Z,39.40
2022-09-10T01:00:14.385Z,40.80
2022-09-10T01:02:44.515Z,41.40
2022-09-10T01:05:15.754Z,39.00
2022-09-10T01:07:44.888Z,43.80
2022-09-10T01:10:29.210Z,39.20
2022-09-10T01:13:19.241Z,39.10
2022-09-10T01:15:55.298Z,38.70
2022-09-10T01:18:42.822Z,40.40
2022-09-10T01:21:14.107Z,42.10
2022-09-10T01:23:42.576Z,40.60
2022-09-10T01:26:50.099Z,38.10
2022-09-10T01:29:39.888Z,36.40
2022-09-10T01:32:15.523Z,35.70
2022-09-10T01:35:21.566Z,34.30
2022-09-10T01:37:56.242Z,34.40
2022-09-10T01:40:30.081Z,32.40
2022-09-10T01:43:07.872Z,32.80
2022-09-10T01:45:49.714Z,32.40
2022-09-10T01:49:00.726Z,34.70
2022-09-10T01:51:55.545Z,34.00
2022-09-10T01:54:40.185Z,31.80
2022-09-10T01:57:48.175Z,30.30
2022-09-10T02:00:20.026Z,30.70
2022-09-10T02:03:20.645Z,33.40
2022-09-10T02:05:53.923Z,32.20
2022-09-10T02:08:31.114Z,33.50
2022-09-10T02:11:07.097Z,31.50
2022-09-10T02:13:35.789Z,32.60
2022-09-10T02:16:09.095Z,32.10
2022-09-10T02:18:40.318Z,31.40
2022-09-10T02:21:12.345Z,30.70
2022-09-10T02:23:54.218Z,28.00
2022-09-10T02:26:24.064Z,26.30
2022-09-10T02:28:53.270Z,28.90
2022-09-10T02:31:21.259Z,30.40
2022-09-10T02:33:52.058Z,29.10
2022-09-10T02:36:21.204Z,30.40
2022-09-10T02:38:49.115Z,31.20
2022-09-10T02:41:18.071Z,33.40
2022-09-10T02:43:46.685Z,31.20
2022-09-10T02:46:15.616Z,30.50
2022-09-10T02:48:44.410Z,34.80
2022-09-10T02:51:12.936Z,37.80
2022-09-10T02:53:40.880Z,33.10
2022-09-10T02:56:10.259Z,34.30
2022-09-10T02:58:40.314Z,35.10
2022-09-10T03:01:15.466Z,32.30
2022-09-10T03:03:50.461Z,29.70
2022-09-10T03:06:19.541Z,29.90
2022-09-10T03:08:48.874Z,33.60
2022-09-10T03:11:18.066Z,28.70
2022-09-10T03:13:46.690Z,30.10
2022-09-10T03:16:17.324Z,29.00
2022-09-10T03:18:46.949Z,29.90
2022-09-10T03:21:20.286Z,29.20
2022-09-10T03:23:51.335Z,33.40
2022-09-10T03:26:22.635Z,30.90
2022-09-10T03:28:50.292Z,32.20
2022-09-10T03:31:19.258Z,34.40
2022-09-10T03:33:47.305Z,37.20
2022-09-10T03:36:16.357Z,38.90
2022-09-10T03:38:53.690Z,38.20
2022-09-10T03:41:21.380Z,33.60
2022-09-10T03:43:50.314Z,32.20
2022-09-10T03:46:18.990Z,31.50
2022-09-10T03:48:50.032Z,31.00
2022-09-10T03:53:49.596Z,32.70
2022-09-10T03:56:21.043Z,34.60
2022-09-10T03:58:49.625Z,37.90
2022-09-10T04:01:19.735Z,50.10
2022-09-10T04:03:48.626Z,44.10
2022-09-10T04:06:17.300Z,44.70
2022-09-10T04:08:51.992Z,35.40
2022-09-10T04:11:20.961Z,36.10
2022-09-10T04:13:49.747Z,38.10
2022-09-10T04:16:18.922Z,36.90
2022-09-10T04:18:47.534Z,37.20
2022-09-10T04:21:15.946Z,38.90
2022-09-10T04:23:46.059Z,37.50
2022-09-10T04:26:18.653Z,43.60
2022-09-10T04:28:46.382Z,43.80
2022-09-10T04:31:15.063Z,49.40
2022-09-10T04:33:45.304Z,47.30
2022-09-10T04:36:13.233Z,47.20
2022-09-10T04:38:42.685Z,51.20
2022-09-10T04:41:11.393Z,44.10
2022-09-10T04:43:39.345Z,47.30
2022-09-10T04:46:08.113Z,44.60
2022-09-10T04:48:36.186Z,42.50
2022-09-10T04:51:16.493Z,45.30
2022-09-10T04:53:47.366Z,48.60
2022-09-10T04:56:15.849Z,53.30
2022-09-10T04:58:45.652Z,48.40
2022-09-10T05:01:14.430Z,50.00
2022-09-10T05:03:43.849Z,50.10
2022-09-10T05:06:12.926Z,48.10
2022-09-10T05:08:41.541Z,49.10
2022-09-10T05:11:10.939Z,49.30
2022-09-10T05:13:40.221Z,44.50
2022-09-10T05:16:08.226Z,47.50
2022-09-10T05:18:36.521Z,51.10
2022-09-10T05:21:06.324Z,51.60
2022-09-10T05:23:34.979Z,51.30
2022-09-10T05:26:02.935Z,40.90
2022-09-10T05:28:31.618Z,36.80
2022-09-10T05:31:00.391Z,34.40
2022-09-10T05:33:29.089Z,33.70
2022-09-10T05:35:56.812Z,31.00
2022-09-10T05:38:25.871Z,32.10
2022-09-10T05:40:54.681Z,31.00
2022-09-10T05:43:23.562Z,30.40
2022-09-10T05:45:53.209Z,30.50
2022-09-10T05:48:21.974Z,30.20
2022-09-10T05:50:51.855Z,32.40
2022-09-10T05:53:19.797Z,30.70
2022-09-10T05:55:50.431Z,33.00
2022-09-10T05:58:18.108Z,31.00
2022-09-10T06:00:55.162Z,29.20
2022-09-10T06:03:23.206Z,32.40
2022-09-10T06:05:52.816Z,30.00
2022-09-10T06:08:22.972Z,30.40
2022-09-10T06:11:07.902Z,26.50
2022-09-10T06:13:39.201Z,25.30
2022-09-10T06:16:07.688Z,26.10
2022-09-10T06:18:35.971Z,26.40
2022-09-10T06:21:09.415Z,26.30
2022-09-10T06:23:37.133Z,26.20
2022-09-10T06:26:10.425Z,28.30
2022-09-10T06:28:39.279Z,25.80
2022-09-10T06:31:12.212Z,27.10
2022-09-10T06:33:41.035Z,27.00
2022-09-10T06:36:11.588Z,25.30
2022-09-10T06:38:41.607Z,26.90
2022-09-10T06:41:13.755Z,25.30
2022-09-10T06:43:42.726Z,25.20
2022-09-10T06:46:56.944Z,26.80
2022-09-10T06:49:06.774Z,23.90
2022-09-10T06:51:35.496Z,23.10
2022-09-10T06:54:04.386Z,23.40
2022-09-10T06:56:33.101Z,23.10
2022-09-10T06:59:02.902Z,24.30
2022-09-10T07:01:32.198Z,22.60
2022-09-10T07:04:03.040Z,23.20
2022-09-10T07:06:36.086Z,25.60
2022-09-10T07:09:06.257Z,26.70
2022-09-10T07:11:41.150Z,28.20
2022-09-10T07:14:14.282Z,29.00
2022-09-10T07:16:43.316Z,29.10
2022-09-10T07:19:17.495Z,34.80
2022-09-10T07:21:45.277Z,36.30
2022-09-10T07:24:15.871Z,39.50
2022-09-10T07:26:45.173Z,35.00
2022-09-10T07:29:13.240Z,37.40
2022-09-10T07:31:44.632Z,48.20
2022-09-10T07:34:15.458Z,67.70
2022-09-10T07:36:43.423Z,69.70
2022-09-10T07:39:11.150Z,56.80
2022-09-10T07:41:38.910Z,42.20
2022-09-10T07:44:06.734Z,39.80
2022-09-10T07:46:34.522Z,34.60
2022-09-10T07:49:02.276Z,32.50
2022-09-10T07:51:33.075Z,30.80
2022-09-10T07:54:00.808Z,29.20
2022-09-10T07:56:33.314Z,29.70
2022-09-10T07:59:03.955Z,28.50
2022-09-10T08:01:33.305Z,28.50
2022-09-10T08:04:01.235Z,27.80
2022-09-10T08:06:32.293Z,27.00
2022-09-10T08:09:06.761Z,25.20
2022-09-10T08:11:36.076Z,26.70
2022-09-10T08:14:03.796Z,24.20
2022-09-10T08:16:34.401Z,25.50
2022-09-10T08:19:03.958Z,25.70
2022-09-10T08:21:31.937Z,24.70
2022-09-10T08:23:59.637Z,24.70
2022-09-10T08:26:29.045Z,24.80
2022-09-10T08:28:58.390Z,22.70
2022-09-10T08:31:27.813Z,23.00
2022-09-10T08:33:59.146Z,24.20
2022-09-10T08:36:27.011Z,24.80
2022-09-10T08:38:59.907Z,23.00
2022-09-10T08:41:55.717Z,20.50
2022-09-10T08:44:29.239Z,22.20
2022-09-10T08:49:54.023Z,19.20
2022-09-10T08:52:34.642Z,20.30
2022-09-10T08:55:17.186Z,20.00
2022-09-10T08:58:06.978Z,21.20
2022-09-10T09:00:39.208Z,18.30
2022-09-10T09:03:27.735Z,17.50
2022-09-10T09:05:59.502Z,16.50
2022-09-10T09:08:34.650Z,16.40
2022-09-10T09:11:08.204Z,16.70
2022-09-10T09:13:58.879Z,18.80
2022-09-10T09:16:45.343Z,18.40
2022-09-10T09:19:24.032Z,17.90
2022-09-10T09:21:56.672Z,18.30
2022-09-10T09:24:39.870Z,19.90
2022-09-10T09:27:14.965Z,18.80
2022-09-10T09:30:06.155Z,18.20
2022-09-10T09:32:40.177Z,17.40
2022-09-10T09:35:25.400Z,18.90
2022-09-10T09:38:08.231Z,24.10
2022-09-10T09:40:47.651Z,23.40
2022-09-10T09:43:26.505Z,20.90
2022-09-10T09:45:54.433Z,20.40
2022-09-10T09:48:25.252Z,19.90
2022-09-10T09:51:00.390Z,18.20
2022-09-10T09:53:31.645Z,17.40
2022-09-10T09:56:04.432Z,16.50
2022-09-10T09:58:35.553Z,16.40
2022-09-10T10:01:07.707Z,17.40
2022-09-10T10:03:52.394Z,16.20
2022-09-10T10:06:45.131Z,17.30
2022-09-10T10:09:39.421Z,16.50
2022-09-10T10:12:15.316Z,17.70
2022-09-10T10:14:44.667Z,19.20
2022-09-10T10:17:34.737Z,18.10
2022-09-10T10:20:09.257Z,19.30
2022-09-10T10:22:41.491Z,17.50
2022-09-10T10:25:35.737Z,19.30
2022-09-10T10:28:24.917Z,19.60
2022-09-10T10:31:01.071Z,18.60
2022-09-10T10:33:35.323Z,17.10
2022-09-10T10:36:16.432Z,15.60
2022-09-10T10:38:58.782Z,16.70
2022-09-10T10:41:41.023Z,17.10
2022-09-10T10:44:32.141Z,15.40
2022-09-10T10:47:23.963Z,15.40
2022-09-10T10:50:05.577Z,16.10
2022-09-10T10:52:56.616Z,16.60
2022-09-10T10:55:42.820Z,17.10
2022-09-10T10:58:39.447Z,18.10
2022-09-10T11:01:30.221Z,16.60
2022-09-10T11:04:16.457Z,17.30
2022-09-10T11:06:50.227Z,18.40
2022-09-10T11:09:43.795Z,22.10
2022-09-10T11:12:21.497Z,19.80
2022-09-10T11:15:02.195Z,15.60
2022-09-10T11:17:35.898Z,14.70
2022-09-10T11:20:29.308Z,14.50
2022-09-10T11:23:14.331Z,10.70
2022-09-10T11:25:59.646Z,13.80
2022-09-10T11:28:38.571Z,11.40
2022-09-10T11:31:17.794Z,13.00
2022-09-10T11:34:13.551Z,10.90
2022-09-10T11:36:54.114Z,10.90
2022-09-10T11:39:38.425Z,11.20
2022-09-10T11:42:20.598Z,10.80
2022-09-10T11:45:03.000Z,10.60
2022-09-10T11:47:39.914Z,8.10
2022-09-10T11:50:25.192Z,9.70
2022-09-10T11:52:53.510Z,5.70
2022-09-10T11:55:26.706Z,7.30
2022-09-10T11:58:33.127Z,8.10
2022-09-10T12:01:30.140Z,8.40
2022-09-10T12:04:22.322Z,8.60
2022-09-10T12:07:18.619Z,8.20
2022-09-10T12:10:02.292Z,10.80
2022-09-10T12:12:34.845Z,11.90
2022-09-10T12:15:20.945Z,9.50
2022-09-10T12:18:01.789Z,10.30
2022-09-10T12:20:43.188Z,10.70
2022-09-10T12:23:18.632Z,11.60
2022-09-10T12:25:58.465Z,10.30
2022-09-10T12:28:42.106Z,10.70
2022-09-10T12:31:12.923Z,15.00
2022-09-10T12:33:46.611Z,12.20
2022-09-10T12:36:34.654Z,13.20
2022-09-10T12:39:20.534Z,11.30
2022-09-10T12:41:48.950Z,12.50
2022-09-10T12:44:39.136Z,17.40
2022-09-10T12:47:18.753Z,15.20
2022-09-10T12:49:55.042Z,10.90
2022-09-10T12:52:34.997Z,11.00
2022-09-10T12:55:14.580Z,11.90
2022-09-10T12:58:13.772Z,12.80
2022-09-10T13:00:54.361Z,11.40
2022-09-10T13:03:28.658Z,12.80
2022-09-10T13:06:00.708Z,9.60
2022-09-10T13:08:41.698Z,12.20
2022-09-10T13:11:23.448Z,10.90
2022-09-10T13:14:02.950Z,12.10
2022-09-10T13:16:30.913Z,10.80
2022-09-10T13:19:13.869Z,10.50
2022-09-10T13:21:45.109Z,13.20
2022-09-10T13:24:37.093Z,12.20
2022-09-10T13:27:13.083Z,15.70
2022-09-10T13:30:09.842Z,14.30
2022-09-10T13:33:07.799Z,14.30
2022-09-10T13:36:07.825Z,15.30
2022-09-10T13:38:44.407Z,13.30
2022-09-10T13:41:27.308Z,14.30
2022-09-10T13:44:13.776Z,15.80
2022-09-10T13:46:48.049Z,14.40
2022-09-10T13:49:37.860Z,16.60
2022-09-10T13:52:15.672Z,16.60
2022-09-10T13:54:56.580Z,16.20
2022-09-10T13:57:41.306Z,17.90
2022-09-10T14:00:18.909Z,17.80
2022-09-10T14:03:00.283Z,16.90
2022-09-10T14:05:36.726Z,16.50
2022-09-10T14:08:12.518Z,16.60
2022-09-10T14:11:02.760Z,17.10
2022-09-10T14:13:38.722Z,17.10
2022-09-10T14:16:12.363Z,18.00
2022-09-10T14:18:46.198Z,18.20
2022-09-10T14:21:17.370Z,17.60
2022-09-10T14:23:49.012Z,17.90
2022-09-10T14:26:27.877Z,18.20
2022-09-10T14:29:03.549Z,20.20
2022-09-10T14:31:38.283Z,18.90
2022-09-10T14:34:37.350Z,17.40
2022-09-10T14:37:32.426Z,16.80
2022-09-10T14:40:17.912Z,17.50
2022-09-10T14:42:49.437Z,22.20
2022-09-10T14:45:42.012Z,20.10
2022-09-10T14:48:59.390Z,17.60
2022-09-10T14:51:29.544Z,19.50
2022-09-10T14:54:00.143Z,18.00
2022-09-10T14:56:44.070Z,19.70
2022-09-10T14:59:17.845Z,19.00
2022-09-10T15:01:50.506Z,19.00
2022-09-10T15:04:30.892Z,19.70
2022-09-10T15:07:02.779Z,17.60
2022-09-10T15:09:33.386Z,19.10
2022-09-10T15:12:05.857Z,18.80
2022-09-10T15:14:36.897Z,17.90
2022-09-10T15:17:05.520Z,17.30
2022-09-10T15:19:33.977Z,17.00
2022-09-10T15:22:01.899Z,19.70
2022-09-10T15:24:29.847Z,17.30
2022-09-10T15:26:58.202Z,19.00
2022-09-10T15:29:28.190Z,17.50
2022-09-10T15:32:01.484Z,18.50
2022-09-10T15:34:29.998Z,19.80
2022-09-10T15:37:00.595Z,19.90
2022-09-10T15:39:31.225Z,18.60
2022-09-10T15:42:04.724Z,18.60
2022-09-10T15:44:35.050Z,19.40
2022-09-10T15:47:02.974Z,19.50
2022-09-10T15:49:30.679Z,19.50
2022-09-10T15:52:00.383Z,19.30
2022-09-10T15:54:30.256Z,20.20
2022-09-10T15:57:01.262Z,19.50
2022-09-10T15:59:31.293Z,18.40
2022-09-10T16:02:00.878Z,19.70
2022-09-10T16:04:36.190Z,20.00
2022-09-10T16:07:10.011Z,20.40
2022-09-10T16:09:37.920Z,20.60
2022-09-10T16:12:08.302Z,21.00
2022-09-10T16:14:36.683Z,18.30
2022-09-10T16:17:12.434Z,20.90
2022-09-10T16:19:40.303Z,21.90
2022-09-10T16:22:08.635Z,22.00
2022-09-10T16:24:37.001Z,21.30
2022-09-10T16:27:04.950Z,22.80
2022-09-10T16:29:32.917Z,21.00
2022-09-10T16:32:02.861Z,20.70
2022-09-10T16:34:33.128Z,19.00
2022-09-10T16:37:01.064Z,20.90
2022-09-10T16:39:30.907Z,20.60
2022-09-10T16:41:58.650Z,20.00
2022-09-10T16:44:30.990Z,20.50
2022-09-10T16:47:01.365Z,20.50
2022-09-10T16:49:29.095Z,21.80
2022-09-10T16:52:00.740Z,20.60
2022-09-10T16:54:33.978Z,21.50
2022-09-10T16:57:04.123Z,22.60
2022-09-10T16:59:31.819Z,21.40
2022-09-10T17:02:02.632Z,21.00
2022-09-10T17:04:34.451Z,21.40
2022-09-10T17:07:04.733Z,22.20
2022-09-10T17:09:34.613Z,24.10
2022-09-10T17:12:02.453Z,22.80
2022-09-10T17:14:32.102Z,22.10
2022-09-10T17:17:01.974Z,25.10
2022-09-10T17:19:30.290Z,26.00
2022-09-10T17:21:58.220Z,26.70
2022-09-10T17:24:27.379Z,28.30
2022-09-10T17:26:57.885Z,28.80
2022-09-10T17:29:28.371Z,27.70
2022-09-10T17:31:59.310Z,28.00
2022-09-10T17:34:28.763Z,24.30
2022-09-10T17:36:57.158Z,26.20
2022-09-10T17:39:30.281Z,28.10
2022-09-10T17:41:59.566Z,31.90
2022-09-10T17:44:27.825Z,35.50
2022-09-10T17:46:55.753Z,32.80
2022-09-10T17:49:24.975Z,52.50
2022-09-10T17:51:55.319Z,56.50
2022-09-10T17:54:24.756Z,66.60
2022-09-10T17:56:54.612Z,69.80
2022-09-10T17:59:22.993Z,62.40
2022-09-10T18:01:52.788Z,55.70
2022-09-10T18:04:23.520Z,54.00
2022-09-10T18:06:52.573Z,39.30
2022-09-10T18:09:22.649Z,40.20
2022-09-10T18:11:52.093Z,33.40
2022-09-10T18:14:21.869Z,29.60
2022-09-10T18:16:52.235Z,28.90
2022-09-10T18:19:20.170Z,27.80
2022-09-10T18:21:52.934Z,29.50
2022-09-10T18:24:25.154Z,32.20
2022-09-10T18:26:55.543Z,36.80
2022-09-10T18:29:26.364Z,35.40
2022-09-10T18:31:58.823Z,27.10
2022-09-10T18:34:30.219Z,23.60
2022-09-10T18:37:01.145Z,23.70
2022-09-10T18:39:33.636Z,23.90
2022-09-10T18:42:03.750Z,22.90
2022-09-10T18:44:36.483Z,22.70
2022-09-10T18:47:22.664Z,23.90
2022-09-10T18:50:03.954Z,24.00
2022-09-10T18:52:31.878Z,23.60
2022-09-10T18:55:00.171Z,25.80
2022-09-10T18:57:28.482Z,28.70
2022-09-10T18:59:58.412Z,24.20
2022-09-10T19:02:26.433Z,25.80
2022-09-10T19:05:10.861Z,24.90
2022-09-10T19:07:41.643Z,25.80
2022-09-10T19:10:11.577Z,23.20
2022-09-10T19:12:42.560Z,24.10
2022-09-10T19:15:12.913Z,25.10
2022-09-10T19:17:41.432Z,26.20
2022-09-10T19:20:11.694Z,24.80
2022-09-10T19:22:44.885Z,30.70
2022-09-10T19:25:13.173Z,26.20
2022-09-10T19:27:47.069Z,26.80
2022-09-10T19:30:14.906Z,26.60
2022-09-10T19:32:42.820Z,32.00
2022-09-10T19:35:13.432Z,32.80
2022-09-10T19:37:41.502Z,33.40
2022-09-10T19:40:12.440Z,29.00
2022-09-10T19:42:40.228Z,30.70
2022-09-10T19:45:12.730Z,32.80
2022-09-10T19:47:40.450Z,30.80
2022-09-10T19:50:10.407Z,30.40
2022-09-10T19:52:38.372Z,33.10
2022-09-10T19:55:08.473Z,30.60
2022-09-10T19:57:39.113Z,31.90
2022-09-10T20:00:17.197Z,36.80
2022-09-10T20:02:57.628Z,33.10
2022-09-10T20:05:27.408Z,33.20
2022-09-10T20:07:55.289Z,34.20
2022-09-10T20:10:23.207Z,35.70
2022-09-10T20:12:51.174Z,32.60
2022-09-10T20:15:20.970Z,32.30
2022-09-10T20:17:51.573Z,33.00
2022-09-10T20:20:21.474Z,30.80
2022-09-10T20:22:49.442Z,31.80
2022-09-10T20:25:19.701Z,32.30
2022-09-10T20:27:48.241Z,33.80
2022-09-10T20:30:17.213Z,29.20
2022-09-10T20:32:47.998Z,29.30
2022-09-10T20:35:16.570Z,27.80
2022-09-10T20:37:51.207Z,28.30
2022-09-10T20:40:21.548Z,28.80
2022-09-10T20:42:52.730Z,30.40
2022-09-10T20:45:24.514Z,30.90
2022-09-10T20:47:54.932Z,28.80
2022-09-10T20:50:24.781Z,30.90
2022-09-10T20:52:52.666Z,27.60
2022-09-10T20:55:20.360Z,29.10
2022-09-10T20:57:50.366Z,28.60
2022-09-10T21:00:18.612Z,32.70
2022-09-10T21:02:48.806Z,33.50
2022-09-10T21:05:16.619Z,31.90
2022-09-10T21:07:48.496Z,31.40
2022-09-10T21:10:16.500Z,29.60
2022-09-10T21:12:44.411Z,35.70
2022-09-10T21:15:12.580Z,31.00
2022-09-10T21:17:40.510Z,31.70
2022-09-10T21:20:14.254Z,34.50
2022-09-10T21:22:46.700Z,32.70
2022-09-10T21:25:19.233Z,30.20
2022-09-10T21:27:49.192Z,31.00
2022-09-10T21:30:18.929Z,32.10
2022-09-10T21:32:46.634Z,30.80
2022-09-10T21:35:14.511Z,27.60
2022-09-10T21:37:44.350Z,27.00
2022-09-10T21:40:12.099Z,24.90
2022-09-10T21:42:41.755Z,26.70
2022-09-10T21:45:12.102Z,26.10
2022-09-10T21:47:39.853Z,28.40
2022-09-10T21:50:09.690Z,27.60
2022-09-10T21:52:37.649Z,24.10
2022-09-10T21:55:07.721Z,26.20
2022-09-10T21:57:37.478Z,25.40
2022-09-10T22:00:10.015Z,25.40
2022-09-10T22:02:38.877Z,24.60
2022-09-10T22:05:10.428Z,26.80
2022-09-10T22:07:38.385Z,23.60
2022-09-10T22:10:09.437Z,26.30
2022-09-10T22:12:40.621Z,24.00
2022-09-10T22:15:10.700Z,23.30
2022-09-10T22:17:38.674Z,24.50
2022-09-10T22:20:09.278Z,21.90
2022-09-10T22:22:37.211Z,22.00
2022-09-10T22:25:07.798Z,22.10
2022-09-10T22:27:40.578Z,23.80
2022-09-10T22:30:10.733Z,21.30
2022-09-10T22:32:41.633Z,23.40
2022-09-10T22:35:09.740Z,21.30
2022-09-10T22:37:38.113Z,21.50
2022-09-10T22:40:09.524Z,21.80
2022-09-10T22:42:37.458Z,24.10
2022-09-10T22:45:07.732Z,22.50
2022-09-10T22:47:35.577Z,21.80
2022-09-10T22:50:03.362Z,20.50
2022-09-10T22:52:36.137Z,23.70
2022-09-10T22:55:06.516Z,21.40
2022-09-10T22:57:34.245Z,19.20
2022-09-10T23:00:04.546Z,20.60
2022-09-10T23:02:34.161Z,19.50
2022-09-10T23:05:07.036Z,19.70
2022-09-10T23:07:34.726Z,18.90
2022-09-10T23:10:06.351Z,19.10
2022-09-10T23:12:34.599Z,18.30
2022-09-10T23:15:02.970Z,19.50
2022-09-10T23:17:31.087Z,18.60
2022-09-10T23:19:59.023Z,20.80
2022-09-10T23:22:26.941Z,27.80
2022-09-10T23:24:54.950Z,20.00
2022-09-10T23:27:25.305Z,19.20
2022-09-10T23:29:53.232Z,17.30
2022-09-10T23:32:21.116Z,21.00
2022-09-10T23:34:52.488Z,19.90
2022-09-10T23:37:20.967Z,17.90
2022-09-10T23:39:51.393Z,16.60
2022-09-10T23:42:19.095Z,16.50
2022-09-10T23:44:47.014Z,17.60
2022-09-10T23:47:15.111Z,18.00
2022-09-10T23:49:45.011Z,17.30
2022-09-10T23:52:12.676Z,15.40
2022-09-10T23:54:40.580Z,15.00
2022-09-10T23:57:08.942Z,16.20
2022-09-10T23:59:36.626Z,15.30
